Time;durP1;ratioP1;P1;durP2;ratioP2;P2;SDS_P1;SDS_P2;PMS_P1;PMS_P2;Temp;Humidity;BMP_temperature;BMP_pressure;BME280_temperature;BME280_humidity;BME280_pressure;Samples;Min_cycle;Max_cycle;Signal;HPM_P1;HPM_P2
2022/10/28 00:01:44;;;;;;;36.47;22.52;;;;;;;10.55;96.47;101968.78;5086711;28;20036;-72
2022/10/28 00:04:09;;;;;;;34.15;23.27;;;;;;;10.82;94.76;101978.22;5088445;28;20028;-72
2022/10/28 00:06:35;;;;;;;36.63;24.08;;;;;;;10.64;94.21;101989.13;5070132;28;20036;-72
2022/10/28 00:09:02;;;;;;;44.78;23.40;;;;;;;9.68;95.39;101862.44;5080654;28;20041;-73
2022/10/28 00:11:30;;;;;;;35.47;23.98;;;;;;;10.29;95.91;101979.50;5071064;28;20045;-72
2022/10/28 00:13:58;;;;;;;39.55;24.15;;;;;;;10.51;94.17;101990.53;5068809;28;20116;-73
2022/10/28 00:16:26;;;;;;;38.30;22.48;;;;;;;10.40;94.18;101978.91;5069410;28;20105;-73
2022/10/28 00:18:52;;;;;;;37.38;25.55;;;;;;;10.50;93.98;101970.41;5068402;28;20041;-75
2022/10/28 00:21:30;;;;;;;30.83;22.65;;;;;;;10.56;94.27;101942.59;5068370;28;20043;-74
2022/10/28 00:23:55;;;;;;;33.28;21.92;;;;;;;10.54;94.63;101967.03;5066471;28;20041;-74
2022/10/28 00:26:24;;;;;;;31.98;21.77;;;;;;;10.51;92.81;101970.47;5068396;28;20121;-73
2022/10/28 00:28:54;;;;;;;35.13;23.60;;;;;;;10.55;91.22;101956.53;5048830;28;20045;-75
2022/10/28 00:31:23;;;;;;;35.58;23.75;;;;;;;10.23;89.93;101894.47;5051933;28;20117;-73
2022/10/28 00:33:49;;;;;;;32.08;24.10;;;;;;;9.98;89.81;101919.19;5068188;28;20592;-74
2022/10/28 00:36:20;;;;;;;37.30;21.20;;;;;;;10.39;89.51;101983.25;5066153;28;20036;-74
2022/10/28 00:38:47;;;;;;;39.05;22.35;;;;;;;10.32;89.60;101973.44;5068071;28;20053;-75
2022/10/28 00:41:35;;;;;;;38.40;22.75;;;;;;;10.28;89.60;101982.06;5068078;28;20051;-72
2022/10/28 00:44:38;;;;;;;37.38;22.20;;;;;;;10.31;88.90;101980.44;5067575;28;20049;-72
2022/10/28 00:47:11;;;;;;;30.63;20.73;;;;;;;9.25;89.59;101835.97;5065646;28;20079;-72
2022/10/28 00:49:37;;;;;;;37.33;20.67;;;;;;;10.17;89.25;101986.13;5068119;28;20032;-74
2022/10/28 00:52:08;;;;;;;26.85;18.27;;;;;;;9.33;89.49;101878.06;5068825;28;20040;-74
2022/10/28 00:54:34;;;;;;;28.50;20.20;;;;;;;9.67;89.80;101940.19;5066266;28;20032;-73
2022/10/28 00:57:03;;;;;;;28.50;20.30;;;;;;;9.47;89.64;101923.00;5062654;28;20052;-73
2022/10/28 00:59:34;;;;;;;28.38;18.55;;;;;;;9.66;89.37;101963.72;5047589;28;20759;-74
2022/10/28 01:02:00;;;;;;;26.52;18.20;;;;;;;9.78;89.71;101984.16;5047688;28;20053;-74
2022/10/28 01:04:26;;;;;;;31.08;19.10;;;;;;;9.57;89.03;101953.88;5042225;28;20033;-72
2022/10/28 01:06:51;;;;;;;35.78;20.90;;;;;;;8.75;89.61;101824.00;5067321;28;20059;-73
2022/10/28 01:09:17;;;;;;;23.85;18.67;;;;;;;9.23;88.83;101897.88;5067529;28;20778;-73
2022/10/28 01:12:20;;;;;;;28.58;20.35;;;;;;;9.90;88.28;101980.19;5066886;28;20051;-73
2022/10/28 01:15:07;;;;;;;31.52;23.80;;;;;;;9.71;88.75;101989.22;5067069;28;20052;-73
2022/10/28 01:17:57;;;;;;;34.95;25.00;;;;;;;9.44;90.38;101977.94;5065552;28;20032;-73
2022/10/28 01:21:03;;;;;;;29.98;22.77;;;;;;;9.52;90.07;101974.69;5067518;28;20144;-73
2022/10/28 01:23:56;;;;;;;32.72;21.95;;;;;;;9.80;88.52;101979.84;5083504;28;20048;-72
2022/10/28 01:26:57;;;;;;;30.42;21.65;;;;;;;9.78;88.04;101977.19;5087869;28;20055;-73
2022/10/28 01:30:04;;;;;;;30.50;21.73;;;;;;;9.45;90.08;101984.97;5039859;28;20098;-74
2022/10/28 01:32:51;;;;;;;28.05;19.90;;;;;;;9.38;90.13;101983.00;4981724;28;20050;-74
2022/10/28 01:35:28;;;;;;;35.78;20.30;;;;;;;9.44;90.22;101972.72;4980135;28;20046;-74
2022/10/28 01:38:38;;;;;;;33.53;18.88;;;;;;;9.52;89.73;101969.44;5041269;28;20075;-74
2022/10/28 01:41:30;;;;;;;37.60;21.58;;;;;;;9.67;88.62;101974.28;5049215;28;20117;-75
2022/10/28 01:43:55;;;;;;;29.65;18.88;;;;;;;9.51;89.33;101987.78;5067089;28;20109;-74
2022/10/28 01:46:26;;;;;;;29.80;20.30;;;;;;;9.50;89.29;101976.41;5065624;28;20516;-73
2022/10/28 01:48:57;;;;;;;26.35;19.60;;;;;;;8.98;89.95;101925.03;5066864;28;20586;-73
2022/10/28 01:51:28;;;;;;;25.42;17.60;;;;;;;9.22;90.25;101971.16;5066706;28;20039;-73
2022/10/28 01:53:57;;;;;;;30.08;18.00;;;;;;;8.81;89.36;101860.84;5067037;28;20048;-74
2022/10/28 01:56:31;;;;;;;33.05;18.77;;;;;;;8.87;88.02;101821.72;5068478;28;20055;-74
2022/10/28 01:59:00;;;;;;;24.20;17.52;;;;;;;8.97;87.00;101817.69;5049010;28;20069;-76
2022/10/28 02:01:27;;;;;;;25.20;17.77;;;;;;;9.60;87.45;101988.03;5047574;28;20108;-73
2022/10/28 02:03:54;;;;;;;30.13;18.77;;;;;;;8.72;87.85;101852.69;5083956;28;20041;-74
2022/10/28 02:06:22;;;;;;;32.80;16.42;;;;;;;9.40;88.68;101970.84;5073879;28;20049;-74
2022/10/28 02:09:06;;;;;;;31.73;19.35;;;;;;;9.35;88.00;101965.47;5066728;28;20052;-72
2022/10/28 02:11:56;;;;;;;22.55;16.50;;;;;;;9.35;88.17;101969.81;5066121;28;20036;-74
2022/10/28 02:14:31;;;;;;;24.33;16.80;;;;;;;9.50;87.89;101965.00;5067097;28;20111;-74
2022/10/28 02:17:05;;;;;;;26.27;16.33;;;;;;;9.38;87.83;101960.28;5066586;28;20033;-74
2022/10/28 02:19:53;;;;;;;29.38;18.17;;;;;;;9.18;88.95;101964.06;5066645;28;20039;-73
2022/10/28 02:22:25;;;;;;;26.50;16.38;;;;;;;9.19;88.55;101948.38;5046971;28;20037;-73
2022/10/28 02:24:59;;;;;;;23.25;16.35;;;;;;;9.29;88.61;101968.78;5046814;28;20059;-73
2022/10/28 02:27:42;;;;;;;28.90;16.58;;;;;;;9.20;88.61;101970.22;5046800;28;20041;-73
2022/10/28 02:30:14;;;;;;;31.88;16.50;;;;;;;9.46;88.01;101971.03;5055645;28;20109;-73
2022/10/28 02:32:44;;;;;;;21.05;16.63;;;;;;;9.20;87.86;101938.78;5065142;28;20120;-74
2022/10/28 02:35:16;;;;;;;33.05;16.23;;;;;;;8.57;89.14;101864.47;5066848;28;20051;-74
2022/10/28 02:37:45;;;;;;;20.60;12.23;;;;;;;9.06;89.53;101959.31;5065081;28;20040;-74
2022/10/28 02:40:20;;;;;;;23.77;17.10;;;;;;;8.30;89.63;101824.31;5067449;28;20124;-74
2022/10/28 02:42:54;;;;;;;21.30;15.23;;;;;;;9.17;89.51;101964.91;5066802;28;20041;-73
2022/10/28 02:45:25;;;;;;;;;;;;;;;9.20;89.72;101964.97;5067086;28;20032;-73
2022/10/28 02:47:56;;;;;;;24.10;14.63;;;;;;;8.98;89.56;101935.53;5061061;28;19920;-73
2022/10/28 02:50:29;;;;;;;24.40;13.25;;;;;;;8.32;89.60;101831.38;5066569;28;20136;-73
2022/10/28 02:52:59;;;;;;;19.05;14.23;;;;;;;8.10;90.30;101826.25;5066463;28;20064;-73
2022/10/28 02:55:36;;;;;;;23.38;15.10;;;;;;;9.04;90.18;101977.63;5066831;28;20476;-73
2022/10/28 02:58:01;;;;;;;21.30;14.75;;;;;;;8.88;91.00;101962.25;5069616;28;20040;-72
2022/10/28 03:00:27;;;;;;;21.98;16.10;;;;;;;8.92;91.02;101979.84;5070092;28;20487;-73
2022/10/28 03:02:52;;;;;;;26.05;15.70;;;;;;;8.87;90.94;101950.91;5066819;28;20072;-74
2022/10/28 03:05:18;;;;;;;26.33;13.25;;;;;;;8.85;90.90;101952.59;5069743;28;20048;-73
2022/10/28 03:07:44;;;;;;;21.38;15.07;;;;;;;8.33;91.44;101869.75;5069518;28;20033;-73
2022/10/28 03:10:09;;;;;;;23.33;14.90;;;;;;;8.93;92.03;101975.50;5070021;28;20027;-73
2022/10/28 03:12:35;;;;;;;18.65;10.35;;;;;;;8.75;91.71;101932.16;5069371;28;20060;-74
2022/10/28 03:15:01;;;;;;;22.30;14.07;;;;;;;8.13;91.95;101836.84;5069416;28;20041;-73
2022/10/28 03:17:27;;;;;;;21.98;14.55;;;;;;;8.70;92.15;101939.00;5067987;28;20048;-73
2022/10/28 03:19:52;;;;;;;23.95;14.40;;;;;;;9.00;92.21;101982.72;5069357;28;20686;-74
2022/10/28 03:22:18;;;;;;;18.83;13.55;;;;;;;7.95;92.54;101822.31;5070590;28;20437;-73
2022/10/28 03:24:43;;;;;;;20.48;13.73;;;;;;;8.91;93.12;101982.41;5089236;28;20434;-73
2022/10/28 03:27:09;;;;;;;21.58;13.10;;;;;;;8.20;92.88;101858.00;5079925;28;20041;-73
2022/10/28 03:29:34;;;;;;;20.85;12.15;;;;;;;8.67;93.12;101965.06;5075499;28;20077;-73
2022/10/28 03:31:59;;;;;;;17.35;13.27;;;;;;;7.92;93.78;101848.34;5089363;28;20033;-73
2022/10/28 03:34:25;;;;;;;16.80;10.55;;;;;;;8.43;93.94;101934.66;5090089;28;20467;-70
2022/10/28 03:36:51;;;;;;;20.73;14.73;;;;;;;8.77;93.89;101989.81;5089199;28;20445;-73
2022/10/28 03:39:17;;;;;;;19.85;13.77;;;;;;;8.55;93.70;101954.22;5089711;28;20507;-74
2022/10/28 03:41:49;;;;;;;27.10;14.30;;;;;;;8.78;94.24;101989.88;5089393;28;20036;-73
2022/10/28 03:44:14;;;;;;;22.88;14.02;;;;;;;8.78;94.57;101989.88;5059822;28;20455;-74
2022/10/28 03:46:39;;;;;;;24.70;16.13;;;;;;;7.97;94.25;101854.63;5068844;28;20032;-73
2022/10/28 03:49:05;;;;;;;29.02;14.52;;;;;;;8.61;94.40;101952.66;5069529;28;20507;-73
2022/10/28 03:51:30;;;;;;;24.95;12.43;;;;;;;7.89;94.49;101857.78;5068663;28;20044;-73
2022/10/28 03:53:56;;;;;;;16.52;9.95;;;;;;;8.12;94.74;101877.75;5069085;28;20583;-73
2022/10/28 03:56:21;;;;;;;23.00;10.55;;;;;;;8.10;94.40;101844.56;5071981;28;20117;-73
2022/10/28 03:58:47;;;;;;;22.13;15.15;;;;;;;8.74;94.72;101974.91;5068357;28;20483;-73
2022/10/28 04:01:13;;;;;;;21.13;14.98;;;;;;;8.15;94.78;101880.50;5069163;28;20040;-73
2022/10/28 04:03:38;;;;;;;27.80;15.25;;;;;;;9.03;94.48;102012.47;5066864;28;20056;-73
2022/10/28 04:06:04;;;;;;;22.70;14.82;;;;;;;8.34;93.73;101845.38;5068212;28;20036;-73
2022/10/28 04:08:30;;;;;;;31.77;14.55;;;;;;;9.11;93.88;101993.50;5067968;28;20550;-73
2022/10/28 04:10:55;;;;;;;24.23;15.60;;;;;;;9.03;94.41;102003.75;5068385;28;20040;-72
2022/10/28 04:13:20;;;;;;;21.20;14.35;;;;;;;8.37;94.11;101860.28;5083011;28;20032;-74
2022/10/28 04:15:46;;;;;;;31.48;15.55;;;;;;;8.95;94.21;101979.94;5088583;28;20110;-73
2022/10/28 04:18:11;;;;;;;25.00;15.88;;;;;;;8.12;94.06;101833.31;5088484;28;20044;-74
2022/10/28 04:20:37;;;;;;;17.55;13.98;;;;;;;8.34;93.52;101861.06;5088508;28;20545;-73
2022/10/28 04:23:03;;;;;;;28.63;15.32;;;;;;;8.80;95.06;101988.19;5084763;28;20143;-73
2022/10/28 04:25:28;;;;;;;33.83;15.98;;;;;;;7.87;95.39;101838.59;5088021;28;20379;-74
2022/10/28 04:27:54;;;;;;;24.63;15.38;;;;;;;8.65;95.45;101966.75;5066466;28;20560;-74
2022/10/28 04:30:20;;;;;;;23.05;15.02;;;;;;;8.91;94.88;101996.38;5086354;28;20047;-73
2022/10/28 04:32:45;;;;;;;27.13;13.00;;;;;;;8.47;94.22;101913.81;5088372;28;20127;-73
2022/10/28 04:35:12;;;;;;;28.00;14.13;;;;;;;9.00;94.24;102004.53;5087767;28;20048;-74
2022/10/28 04:37:38;;;;;;;28.35;14.52;;;;;;;8.48;93.30;101886.84;5088139;28;20028;-73
2022/10/28 04:40:04;;;;;;;26.15;15.20;;;;;;;8.56;92.93;101890.56;5066255;28;20025;-73
2022/10/28 04:42:30;;;;;;;31.70;19.25;;;;;;;9.09;93.14;102003.94;5067481;28;20076;-73
2022/10/28 04:44:55;;;;;;;24.85;14.52;;;;;;;7.93;94.90;101865.78;5081680;28;20047;-72
2022/10/28 04:47:21;;;;;;;20.35;15.57;;;;;;;7.79;96.44;101867.06;5088188;28;20040;-75
2022/10/28 04:49:46;;;;;;;37.30;15.30;;;;;;;7.69;97.04;101867.56;5069708;28;20455;-73
2022/10/28 04:52:12;;;;;;;22.17;14.80;;;;;;;8.51;98.15;102017.72;5088386;28;20024;-74
2022/10/28 04:54:38;;;;;;;28.50;16.38;;;;;;;8.23;98.39;101973.16;5088308;28;20044;-73
2022/10/28 04:57:03;;;;;;;28.85;15.25;;;;;;;8.46;98.39;102025.41;5080273;28;20037;-72
2022/10/28 04:59:29;;;;;;;24.45;16.85;;;;;;;7.80;98.68;101901.09;5054096;28;20761;-73
2022/10/28 05:01:54;;;;;;;22.92;15.38;;;;;;;8.11;98.59;101945.69;5092849;28;20036;-73
2022/10/28 05:04:20;;;;;;;49.55;17.38;;;;;;;8.40;98.71;101997.28;5091425;28;20032;-73
2022/10/28 05:06:45;;;;;;;33.40;16.02;;;;;;;8.62;98.34;102006.78;5075334;28;20131;-73
2022/10/28 05:09:11;;;;;;;22.58;15.73;;;;;;;8.61;98.41;102011.94;5067881;28;20041;-73
2022/10/28 05:11:36;;;;;;;22.40;12.07;;;;;;;8.57;98.69;101999.59;5066830;28;20041;-73
2022/10/28 05:14:02;;;;;;;40.42;17.15;;;;;;;8.59;98.81;102003.16;5075710;28;20048;-72
2022/10/28 05:16:27;;;;;;;25.63;17.02;;;;;;;8.57;99.14;101996.97;5087431;28;20027;-73
2022/10/28 05:18:53;;;;;;;36.05;18.15;;;;;;;8.62;99.12;102012.03;5087714;28;20046;-74
2022/10/28 05:21:19;;;;;;;23.20;12.73;;;;;;;7.75;99.73;101867.78;5086116;28;20502;-72
2022/10/28 05:23:45;;;;;;;19.88;12.38;;;;;;;7.96;99.05;101876.38;5086670;28;20624;-72
2022/10/28 05:26:11;;;;;;;17.58;12.43;;;;;;;9.02;97.89;102023.81;5087318;28;20448;-72
2022/10/28 05:28:37;;;;;;;27.55;15.73;;;;;;;9.15;97.13;102022.44;5079531;28;20110;-74
2022/10/28 05:31:02;;;;;;;25.35;15.77;;;;;;;8.98;96.90;101981.75;5084713;28;20078;-72
2022/10/28 05:33:28;;;;;;;22.42;15.15;;;;;;;8.48;96.47;101921.72;5087322;28;20040;-72
2022/10/28 05:35:53;;;;;;;29.35;16.15;;;;;;;8.70;97.84;102021.84;5076433;28;20075;-72
2022/10/28 05:38:19;;;;;;;28.17;17.65;;;;;;;8.71;98.37;102018.38;5048608;28;20499;-73
2022/10/28 05:40:44;;;;;;;26.33;17.13;;;;;;;8.50;98.29;101985.44;5037467;28;20051;-74
2022/10/28 05:43:10;;;;;;;26.10;13.57;;;;;;;8.81;98.38;102028.34;5051343;28;20060;-73
2022/10/28 05:45:36;;;;;;;18.80;12.32;;;;;;;7.99;97.76;101893.88;5052225;28;20052;-71
2022/10/28 05:48:01;;;;;;;28.27;16.90;;;;;;;8.69;97.46;101979.09;5067302;28;20036;-74
2022/10/28 05:50:27;;;;;;;39.05;16.20;;;;;;;8.19;96.57;101884.09;5057015;28;20068;-73
2022/10/28 05:52:55;;;;;;;29.77;17.55;;;;;;;8.43;95.13;101903.25;5034751;28;20053;-73
2022/10/28 05:55:22;;;;;;;23.80;15.18;;;;;;;8.51;94.27;101905.22;5065962;28;20067;-74
2022/10/28 05:57:49;;;;;;;33.95;17.70;;;;;;;9.21;94.26;102027.00;5060816;28;20484;-74
2022/10/28 06:00:17;;;;;;;23.48;16.10;;;;;;;8.49;94.71;101927.84;5073862;28;20083;-73
2022/10/28 06:02:43;;;;;;;33.08;18.05;;;;;;;9.30;94.51;102049.13;5061566;28;20080;-73
2022/10/28 06:05:09;;;;;;;37.85;18.05;;;;;;;8.53;93.97;101909.69;5076509;28;20068;-73
2022/10/28 06:07:36;;;;;;;24.08;16.08;;;;;;;9.19;94.35;102024.34;5066756;28;20087;-74
2022/10/28 06:10:03;;;;;;;35.28;16.75;;;;;;;9.34;94.35;102047.53;5080061;28;20402;-75
2022/10/28 06:12:30;;;;;;;20.73;16.30;;;;;;;8.89;94.58;101969.25;5063862;28;20113;-72
2022/10/28 06:14:56;;;;;;;35.10;18.17;;;;;;;8.76;94.29;101939.19;5064312;28;20036;-72
2022/10/28 06:17:22;;;;;;;32.63;17.45;;;;;;;9.06;93.45;101956.69;5064529;28;20438;-73
2022/10/28 06:19:48;;;;;;;34.70;17.92;;;;;;;9.37;93.86;102013.56;5065096;28;20523;-73
2022/10/28 06:22:13;;;;;;;22.90;18.30;;;;;;;8.85;93.37;101897.63;5048560;28;20032;-74
2022/10/28 06:24:39;;;;;;;29.10;17.95;;;;;;;9.75;93.21;102037.41;5084209;28;20052;-73
2022/10/28 06:27:05;;;;;;;30.27;17.58;;;;;;;9.92;92.34;102036.13;5080654;28;20052;-73
2022/10/28 06:29:31;;;;;;;31.20;17.48;;;;;;;9.60;91.84;101971.41;5046235;28;20037;-76
2022/10/28 06:31:57;;;;;;;37.78;17.15;;;;;;;9.77;91.08;101985.03;5048362;28;20056;-74
2022/10/28 06:34:22;;;;;;;24.92;16.17;;;;;;;10.12;91.24;102051.56;5071451;28;20487;-74
2022/10/28 06:36:48;;;;;;;30.02;17.13;;;;;;;9.80;90.67;101991.22;5071601;28;20045;-74
2022/10/28 06:39:13;;;;;;;34.47;15.77;;;;;;;10.39;89.91;102055.84;5090173;28;20036;-74
2022/10/28 06:41:39;;;;;;;30.50;17.05;;;;;;;10.35;89.08;102031.25;5090273;28;20466;-74
2022/10/28 06:44:04;;;;;;;38.28;17.15;;;;;;;10.53;89.28;102050.09;5090137;28;20047;-73
2022/10/28 06:46:31;;;;;;;29.17;16.80;;;;;;;10.30;88.67;102018.03;5090186;28;20577;-73
2022/10/28 06:48:57;;;;;;;26.50;16.60;;;;;;;10.69;88.15;102050.50;5087749;28;20040;-72
2022/10/28 06:51:23;;;;;;;29.40;17.65;;;;;;;10.57;88.23;102056.34;5090466;28;20054;-73
2022/10/28 06:53:49;;;;;;;29.42;17.90;;;;;;;10.09;87.69;101929.13;5090255;28;20051;-73
2022/10/28 06:56:15;;;;;;;39.75;17.77;;;;;;;10.09;87.03;101926.50;5071990;28;20426;-72
2022/10/28 06:58:40;;;;;;;28.92;19.08;;;;;;;10.11;86.88;101943.16;5057263;28;20020;-72
2022/10/28 07:01:06;;;;;;;27.55;16.02;;;;;;;10.77;86.77;102035.88;5050101;28;20440;-75
2022/10/28 07:03:31;;;;;;;30.73;20.88;;;;;;;10.23;87.15;101945.22;5051651;28;20098;-74
2022/10/28 07:05:57;;;;;;;27.20;18.25;;;;;;;11.01;86.17;102050.44;5054993;28;20056;-74
2022/10/28 07:08:23;;;;;;;34.55;21.85;;;;;;;10.42;85.60;101953.56;5090241;28;20132;-74
2022/10/28 07:10:56;;;;;;;39.70;22.98;;;;;;;10.39;85.76;101936.00;5079815;28;20041;-74
2022/10/28 07:13:22;;;;;;;30.17;18.77;;;;;;;10.06;86.59;101925.50;5070359;28;20032;-74
2022/10/28 07:15:56;;;;;;;29.02;17.33;;;;;;;10.86;86.31;102057.06;5051184;28;20051;-74
2022/10/28 07:18:23;;;;;;;31.67;17.25;;;;;;;10.19;86.49;101931.97;5052598;28;20438;-73
2022/10/28 07:20:48;;;;;;;30.70;18.00;;;;;;;10.65;86.04;102002.31;5089682;28;20111;-73
2022/10/28 07:23:14;;;;;;;36.58;21.90;;;;;;;10.25;85.65;101913.75;5088333;28;20119;-73
2022/10/28 07:25:40;;;;;;;42.78;29.23;;;;;;;11.11;85.78;102066.47;5089623;28;20020;-73
2022/10/28 07:28:06;;;;;;;28.70;20.02;;;;;;;10.53;85.60;101938.97;5062423;28;20102;-73
2022/10/28 07:30:32;;;;;;;40.13;19.42;;;;;;;11.02;85.09;102018.94;5066868;28;20488;-73
2022/10/28 07:32:59;;;;;;;31.40;19.17;;;;;;;10.53;84.74;101924.13;5069094;28;20042;-73
2022/10/28 07:35:29;;;;;;;39.20;22.80;;;;;;;11.14;84.54;102032.41;5067878;28;20500;-73
2022/10/28 07:38:01;;;;;;;52.45;32.83;;;;;;;10.87;84.18;101966.06;5076023;28;20066;-73
2022/10/28 07:40:27;;;;;;;34.45;23.23;;;;;;;10.90;83.64;101939.88;5090182;28;20514;-74
2022/10/28 07:42:52;;;;;;;30.20;15.07;;;;;;;10.92;83.50;101951.31;5088325;28;20044;-74
2022/10/28 07:45:18;;;;;;;33.38;18.05;;;;;;;10.93;83.51;101937.31;5088858;28;20483;-74
2022/10/28 07:47:44;;;;;;;36.10;22.90;;;;;;;11.76;82.80;102057.44;5089501;28;20357;-73
2022/10/28 07:50:10;;;;;;;37.20;22.35;;;;;;;11.75;82.83;102056.56;5088848;28;20491;-73
2022/10/28 07:52:36;;;;;;;29.67;18.20;;;;;;;11.81;82.66;102061.06;5085494;28;20032;-75
2022/10/28 07:55:04;;;;;;;35.03;20.17;;;;;;;11.26;82.09;101945.09;5089673;28;20032;-73
2022/10/28 07:57:29;;;;;;;31.08;19.80;;;;;;;11.37;81.49;101953.19;5076111;28;20041;-74
2022/10/28 07:59:55;;;;;;;27.45;19.30;;;;;;;11.88;80.93;102020.91;5051170;28;20770;-74
2022/10/28 08:02:22;;;;;;;25.50;18.20;;;;;;;12.09;81.17;102051.16;5067388;28;20336;-75
2022/10/28 08:04:48;;;;;;;29.05;19.83;;;;;;;12.10;80.87;102058.16;5050507;28;20048;-75
2022/10/28 08:07:14;;;;;;;29.30;17.70;;;;;;;11.99;80.31;102023.78;5090085;28;20098;-74
2022/10/28 08:09:39;;;;;;;29.73;16.15;;;;;;;12.11;80.63;102033.66;5072264;28;20082;-73
2022/10/28 08:12:06;;;;;;;26.75;17.42;;;;;;;12.25;79.60;102026.91;5068396;28;20044;-74
2022/10/28 08:14:32;;;;;;;26.38;16.60;;;;;;;12.38;78.94;102068.38;5068393;28;20599;-74
2022/10/28 08:16:57;;;;;;;18.67;14.38;;;;;;;11.71;78.82;101915.34;5068493;28;20060;-75
2022/10/28 08:19:31;;;;;;;24.33;15.13;;;;;;;12.67;77.79;102052.25;5068134;28;20519;-73
2022/10/28 08:21:56;;;;;;;20.90;15.80;;;;;;;12.73;77.47;102052.34;5068735;28;20033;-74
2022/10/28 08:24:35;;;;;;;30.00;16.50;;;;;;;12.84;77.70;102055.19;5067083;28;20464;-74
2022/10/28 08:27:01;;;;;;;28.52;16.85;;;;;;;13.00;77.19;102069.50;5067127;28;20118;-74
2022/10/28 08:29:26;;;;;;;23.13;16.83;;;;;;;12.40;76.63;101953.47;5068104;28;20476;-74
2022/10/28 08:31:52;;;;;;;21.73;16.27;;;;;;;12.38;76.34;101930.59;5066336;28;20514;-74
2022/10/28 08:34:17;;;;;;;25.35;15.63;;;;;;;12.93;76.60;102025.47;5068950;28;20021;-73
2022/10/28 08:36:43;;;;;;;30.70;17.23;;;;;;;13.13;75.62;102039.81;5066691;28;20078;-74
2022/10/28 08:39:08;;;;;;;20.25;14.25;;;;;;;12.71;74.67;101964.50;5064878;28;20126;-74
2022/10/28 08:41:55;;;;;;;41.47;17.45;;;;;;;12.79;75.17;101967.28;5047631;28;20047;-74
2022/10/28 08:44:27;;;;;;;27.63;17.33;;;;;;;13.46;75.04;102060.59;5059767;28;20587;-72
2022/10/28 08:47:10;;;;;;;23.42;14.20;;;;;;;13.58;74.25;102058.97;5068035;28;20033;-73
2022/10/28 08:49:40;;;;;;;31.75;16.75;;;;;;;13.52;74.46;102039.56;5067289;28;20078;-74
2022/10/28 08:52:36;;;;;;;21.27;14.95;;;;;;;13.83;73.14;102063.72;5067134;28;20020;-74
2022/10/28 08:55:13;;;;;;;35.30;15.15;;;;;;;13.92;72.88;102060.34;5066070;28;20045;-74
2022/10/28 08:57:50;;;;;;;30.63;17.55;;;;;;;13.85;72.88;102053.19;5049066;28;20095;-74
2022/10/28 09:00:21;;;;;;;21.63;14.48;;;;;;;13.71;72.94;102029.28;5050174;28;20045;-74
2022/10/28 09:02:56;;;;;;;22.77;15.32;;;;;;;14.02;71.95;102049.00;5065834;28;20080;-74
2022/10/28 09:05:24;;;;;;;23.45;14.48;;;;;;;14.02;72.18;102041.09;5066806;28;20079;-74
2022/10/28 09:07:50;;;;;;;18.98;13.82;;;;;;;14.04;71.66;102044.63;5063538;28;20077;-74
2022/10/28 09:10:18;;;;;;;20.50;12.55;;;;;;;14.28;70.90;102059.91;5067577;28;20033;-74
2022/10/28 09:13:16;;;;;;;23.50;13.60;;;;;;;14.42;70.51;102044.22;5065918;28;20049;-74
2022/10/28 09:15:50;;;;;;;19.48;14.32;;;;;;;14.44;70.43;102049.47;5038869;28;20044;-74
2022/10/28 09:18:33;;;;;;;21.88;14.85;;;;;;;14.42;70.56;102043.28;5066184;28;20043;-74
2022/10/28 09:21:04;;;;;;;23.65;14.35;;;;;;;14.50;69.71;102017.88;5066737;28;20060;-74
2022/10/28 09:23:32;;;;;;;24.30;12.73;;;;;;;14.51;70.09;102006.41;5066905;28;20075;-72
2022/10/28 09:26:36;;;;;;;19.13;13.80;;;;;;;14.77;69.50;102034.00;5061737;28;20630;-74
2022/10/28 09:29:25;;;;;;;29.63;13.23;;;;;;;14.70;69.44;102029.53;5030918;28;20037;-74
2022/10/28 09:32:21;;;;;;;19.48;15.43;;;;;;;14.81;68.51;102018.16;5065953;28;20075;-74
2022/10/28 09:34:55;;;;;;;19.85;12.95;;;;;;;14.99;67.91;102015.69;5066668;28;20119;-74
2022/10/28 09:37:25;;;;;;;22.05;13.32;;;;;;;14.60;67.04;101915.84;5049520;28;20063;-72
2022/10/28 09:39:55;;;;;;;26.20;14.25;;;;;;;14.47;67.81;101896.31;5066234;28;20041;-73
2022/10/28 09:42:37;;;;;;;17.63;12.90;;;;;;;15.24;67.17;102006.16;5054996;28;20128;-73
2022/10/28 09:45:11;;;;;;;17.90;11.05;;;;;;;15.45;66.36;102001.84;5029743;28;20127;-74
2022/10/28 09:47:43;;;;;;;24.77;11.27;;;;;;;15.46;66.59;102006.28;5063469;28;20067;-74
2022/10/28 09:50:22;;;;;;;24.42;13.15;;;;;;;14.83;65.63;101885.16;5066631;28;20094;-72
2022/10/28 09:53:25;;;;;;;20.67;11.85;;;;;;;15.60;64.79;102005.47;5066512;28;20052;-75
2022/10/28 09:55:50;;;;;;;18.10;12.90;;;;;;;15.26;63.93;101897.72;5066639;28;20090;-73
2022/10/28 09:58:17;;;;;;;18.42;11.13;;;;;;;15.79;64.06;101989.72;5043993;28;20029;-73
2022/10/28 10:00:42;;;;;;;24.63;13.00;;;;;;;15.79;63.76;101982.66;5046320;28;20101;-74
2022/10/28 10:03:08;;;;;;;26.60;13.15;;;;;;;15.91;63.92;101987.09;5054674;28;20428;-75
2022/10/28 10:05:41;;;;;;;25.05;12.52;;;;;;;15.89;63.38;101991.50;5046174;28;20052;-75
2022/10/28 10:08:12;;;;;;;24.70;12.60;;;;;;;16.02;62.69;101990.66;5045409;28;20140;-73
2022/10/28 10:10:48;;;;;;;18.70;11.85;;;;;;;15.87;62.28;101937.66;5057184;28;20036;-72
2022/10/28 10:13:20;;;;;;;21.95;12.75;;;;;;;16.08;62.44;101979.19;5046611;28;20033;-75
2022/10/28 10:15:54;;;;;;;24.02;12.73;;;;;;;16.15;62.22;101965.09;5029426;28;20496;-74
2022/10/28 10:18:27;;;;;;;31.33;12.10;;;;;;;16.11;62.23;101955.38;5052946;28;20045;-74
2022/10/28 10:20:57;;;;;;;20.73;12.38;;;;;;;15.91;62.06;101912.09;5066733;28;20477;-74
2022/10/28 10:23:34;;;;;;;19.42;12.13;;;;;;;15.74;61.26;101859.13;5063333;28;20051;-75
2022/10/28 10:26:14;;;;;;;21.60;10.90;;;;;;;15.86;60.87;101840.63;5054852;28;20059;-75
2022/10/28 10:28:47;;;;;;;23.33;12.27;;;;;;;16.23;60.59;101878.59;5050715;28;20032;-73
2022/10/28 10:31:21;;;;;;;23.30;11.95;;;;;;;16.71;60.67;101935.97;5046831;28;20163;-74
2022/10/28 10:33:53;;;;;;;29.27;12.52;;;;;;;16.48;60.45;101894.47;5046055;28;20383;-75
2022/10/28 10:36:22;;;;;;;16.83;11.52;;;;;;;16.99;59.91;101958.94;5035715;28;20045;-74
2022/10/28 10:38:51;;;;;;;20.02;13.15;;;;;;;16.41;59.60;101813.22;5052205;28;20164;-74
2022/10/28 10:41:37;;;;;;;20.58;12.40;;;;;;;17.09;59.48;101946.53;5066372;28;20480;-74
2022/10/28 10:44:21;;;;;;;26.88;11.88;;;;;;;17.27;58.99;101942.97;5064720;28;20044;-73
2022/10/28 10:46:58;;;;;;;17.75;11.70;;;;;;;17.43;58.04;101944.69;5064891;28;20032;-73
2022/10/28 10:49:23;;;;;;;18.63;10.57;;;;;;;17.61;57.65;101949.03;5066721;28;20051;-74
2022/10/28 10:51:59;;;;;;;18.40;12.02;;;;;;;17.28;57.73;101863.38;5066368;28;20759;-72
2022/10/28 10:54:29;;;;;;;13.77;11.57;;;;;;;17.38;58.26;101906.69;5066849;28;20059;-74
2022/10/28 10:57:13;;;;;;;18.00;11.35;;;;;;;17.59;57.64;101941.97;5051941;28;20094;-74
2022/10/28 10:59:38;;;;;;;18.55;11.13;;;;;;;17.63;56.82;101938.41;5047626;28;20469;-73
2022/10/28 11:02:38;;;;;;;26.30;11.82;;;;;;;17.25;56.66;101843.94;5045587;28;20037;-72
2022/10/28 11:05:08;;;;;;;19.27;10.30;;;;;;;17.16;56.80;101842.22;5045359;28;20037;-73
2022/10/28 11:07:36;;;;;;;16.63;10.20;;;;;;;17.15;56.75;101847.53;5046225;28;20021;-74
2022/10/28 11:10:01;;;;;;;19.33;10.88;;;;;;;17.70;56.27;101927.78;5061194;28;20056;-74
2022/10/28 11:12:31;;;;;;;18.73;9.80;;;;;;;17.64;56.03;101903.91;5065527;28;20094;-74
2022/10/28 11:15:00;;;;;;;14.88;10.13;;;;;;;17.69;56.32;101903.88;5065403;28;20060;-73
2022/10/28 11:17:33;;;;;;;19.02;10.98;;;;;;;17.94;55.26;101909.97;5065823;28;20049;-74
2022/10/28 11:20:21;;;;;;;19.85;11.52;;;;;;;17.27;55.59;101789.97;5069468;28;20094;-72
2022/10/28 11:23:16;;;;;;;16.33;10.75;;;;;;;17.96;55.59;101913.50;5067897;28;20034;-74
2022/10/28 11:25:49;;;;;;;14.15;7.55;;;;;;;18.00;55.13;101915.22;5055490;28;20072;-73
2022/10/28 11:28:42;;;;;;;13.45;8.75;;;;;;;18.04;54.17;101910.78;5068916;28;20044;-72
2022/10/28 11:31:16;;;;;;;13.60;7.47;;;;;;;17.96;54.72;101902.88;5073741;28;20540;-73